Flight Track Log - Related Links

Times and Time Zones

All times are in EDT time to prevent confusion due to time zone crossing. See the N534QS flight status page for this flight to view local times or setup timezone preferences in your user account.

Time Position Orientation Groundspeed Altitude Reporting Facility
EDT Latitude Longitude Course Direction KTS MPH feet Rate Location/Type
Mon 12:12:55 PM 42.3667 -71.0167 138° Southeast 162 186 700  Level KA90
Mon 12:14:29 PM 42.3008 -70.9356 138° Southeast 220 253 6,600 3,857 Climbing Boston Center
Mon 12:15:29 PM 42.3244 -70.8422 71° East 233 268 10,600 3,364 Climbing Boston Center
Mon 12:16:41 PM 42.2872 -70.7169 112° Southeast 276 318 14,000 2,045 Climbing Boston Center
Mon 12:17:41 PM 42.2003 -70.7444 193° South 236 272 15,100 1,050 Climbing Boston Center
Mon 12:18:41 PM 42.1667 -70.8772 251° West 218 251 16,100 500 Climbing Boston Center
Mon 12:19:41 PM 42.1706 -71.0228 272° West 355 409 16,100  Level Boston Center
Mon 12:20:41 PM 42.1722 -71.1486 271° West 368 423 16,100  Level Boston Center
Mon 12:21:41 PM 42.1717 -71.3028 270° West 373 429 16,100 -50 Level Boston Center
Mon 12:22:41 PM 42.1728 -71.4317 271° West 383 441 16,000 -50 Descending Boston Center
Mon 12:23:41 PM 42.1722 -71.5886 270° West 383 441 16,000 50 Level Boston Center
Mon 12:24:41 PM 42.1711 -71.7314 269° West 383 441 16,100  Climbing Boston Center
Mon 12:25:41 PM 42.1717 -71.8603 270° West 383 441 16,000 -50 Descending Boston Center
Mon 12:26:41 PM 42.1683 -72.0228 268° West 388 447 16,000  Level Boston Center
Mon 12:27:41 PM 42.1686 -72.1656 270° West 388 447 16,000  Level Boston Center
Mon 12:28:41 PM 42.1669 -72.3114 269° West 388 447 16,000  Level Boston Center
Mon 12:29:41 PM 42.1650 -72.4569 269° West 388 447 16,000  Level Boston Center
Mon 12:30:41 PM 42.1628 -72.5997 269° West 383 441 16,000  Level Boston Center
Mon 12:31:41 PM 42.1603 -72.7425 269° West 383 441 16,000 -100 Level Boston Center
Mon 12:32:41 PM 42.1494 -72.8853 264° West 383 441 15,800 -600 Descending Boston Center
Mon 12:33:41 PM 42.1406 -73.0281 265° West 383 441 14,800 -900 Descending Boston Center
Mon 12:34:41 PM 42.1314 -73.1681 265° West 383 441 14,000 -400 Descending Boston Center
Mon 12:35:41 PM 42.1200 -73.3078 264° West 383 441 14,000  Level Boston Center
Mon 12:36:41 PM 42.1128 -73.4225 265° West 388 447 14,000  Level Boston Center
Mon 12:37:41 PM 42.1028 -73.5931 266° West 388 447 14,000  Level Boston Center
Mon 12:38:41 PM 42.0908 -73.7269 263° West 383 441 14,000  Level Boston Center
Mon 12:39:41 PM 42.0811 -73.8556 264° West 378 435 14,000  Level Boston Center
Mon 12:40:41 PM 42.0706 -74.0092 265° West 383 441 14,000  Level Boston Center
Mon 12:41:41 PM 42.0583 -74.1486 263° West 383 441 14,000  Level Boston Center
Mon 12:42:41 PM 42.0375 -74.2739 257° West 383 441 14,000 -350 Level Boston Center
Mon 12:43:41 PM 42.0183 -74.4186 260° West 383 441 13,300 -1,050 Descending Boston Center
Mon 12:44:41 PM 41.9997 -74.5269 257° West 348 400 11,900 -1,400 Descending Boston Center
Mon 12:45:41 PM 41.9297 -74.5889 213° Southwest 279 321 10,500 -1,150 Descending Boston Center
Mon 12:46:41 PM 41.8572 -74.5753 172° South 256 295 9,600 -950 Descending Boston Center
Mon 12:47:41 PM 41.7678 -74.5667 176° South 291 335 8,600 -950 Descending Boston Center
Mon 12:48:41 PM 41.6969 -74.5614 177° South 291 335 7,700 -900 Descending Boston Center
Mon 12:49:41 PM 41.6094 -74.5558 177° South 291 335 6,800 -850 Descending Boston Center
Mon 12:50:41 PM 41.5406 -74.5675 187° South 291 335 6,000 -400 Descending Boston Center
Mon 12:51:41 PM 41.4567 -74.5839 188° South 291 335 6,000  Level Boston Center
Mon 12:52:41 PM 41.3897 -74.6011 191° South 280 322 6,000  Level Boston Center
Mon 12:53:25 PM 41.3333 -74.6167 192° South 272 313 6,000  Level New York TRACON
Mon 12:54:25 PM 41.2667 -74.6500 201° Southwest 269 310 6,000 -250 Level New York TRACON
Mon 12:55:25 PM 41.1833 -74.6500 180° South 275 316 5,500 -750 Descending New York TRACON
Mon 12:56:25 PM 41.1167 -74.6333 169° South 272 313 4,500 -950 Descending New York TRACON
Mon 12:57:25 PM 41.0833 -74.5500 118° Southeast 283 326 3,600 -750 Descending New York TRACON
Mon 12:58:25 PM 41.1000 -74.4667 75° East 265 305 3,000 -240 Descending New York TRACON
Mon 01:00:00 PM 41.0121 -74.3234 143° Southeast  Level Estimated
Mon 01:02:25 PM 41.0500 -74.1333 114° Southeast 206 237 2,400  Level New York TRACON
Mon 01:03:25 PM 41.0167 -74.0667 124° Southeast 204 235 2,000 -400 Descending New York TRACON
Mon 01:07:00 PM 40.8500 -74.0500 114° Southeast  Level FlightAware Approximate
Mon 01:08:00 PM 40.8501 -74.0608 114° Southeast  Level Estimated

Login

Don't have an account? Register now (free) for customized features, flight alerts, and more!